sensor_id;sensor_type;location;lat;lon;timestamp;P1;durP1;ratioP1;P2;durP2;ratioP2
59972;SDS011;55298;-36.624;-64.282;2023-05-01T00:02:26;7.78;;;5.00;;
59972;SDS011;55298;-36.624;-64.282;2023-05-01T00:04:55;5.38;;;4.85;;
59972;SDS011;55298;-36.624;-64.282;2023-05-01T00:07:26;6.18;;;5.25;;
59972;SDS011;55298;-36.624;-64.282;2023-05-01T00:09:56;5.30;;;4.75;;
59972;SDS011;55298;-36.624;-64.282;2023-05-01T00:12:24;5.75;;;5.25;;
59972;SDS011;55298;-36.624;-64.282;2023-05-01T00:14:52;9.55;;;5.63;;
59972;SDS011;55298;-36.624;-64.282;2023-05-01T00:17:21;5.55;;;5.05;;
59972;SDS011;55298;-36.624;-64.282;2023-05-01T00:19:52;7.22;;;6.10;;
59972;SDS011;55298;-36.624;-64.282;2023-05-01T00:22:20;7.20;;;5.47;;
59972;SDS011;55298;-36.624;-64.282;2023-05-01T00:24:48;7.78;;;6.18;;
59972;SDS011;55298;-36.624;-64.282;2023-05-01T00:27:16;7.97;;;5.82;;
59972;SDS011;55298;-36.624;-64.282;2023-05-01T00:29:44;6.25;;;5.70;;
59972;SDS011;55298;-36.624;-64.282;2023-05-01T00:32:12;6.80;;;5.60;;
59972;SDS011;55298;-36.624;-64.282;2023-05-01T00:34:40;8.52;;;5.18;;
59972;SDS011;55298;-36.624;-64.282;2023-05-01T00:37:08;7.55;;;5.95;;
59972;SDS011;55298;-36.624;-64.282;2023-05-01T00:39:38;7.40;;;6.13;;
59972;SDS011;55298;-36.624;-64.282;2023-05-01T00:42:09;6.00;;;5.40;;
59972;SDS011;55298;-36.624;-64.282;2023-05-01T00:44:36;10.05;;;6.40;;
59972;SDS011;55298;-36.624;-64.282;2023-05-01T00:47:04;7.13;;;6.40;;
59972;SDS011;55298;-36.624;-64.282;2023-05-01T00:49:32;10.48;;;6.78;;
59972;SDS011;55298;-36.624;-64.282;2023-05-01T00:52:01;7.88;;;5.70;;
59972;SDS011;55298;-36.624;-64.282;2023-05-01T00:54:29;9.82;;;6.50;;
59972;SDS011;55298;-36.624;-64.282;2023-05-01T00:56:57;11.02;;;6.68;;
59972;SDS011;55298;-36.624;-64.282;2023-05-01T00:59:25;10.82;;;6.07;;
59972;SDS011;55298;-36.624;-64.282;2023-05-01T01:01:53;10.05;;;7.05;;
59972;SDS011;55298;-36.624;-64.282;2023-05-01T01:04:21;6.88;;;6.00;;
59972;SDS011;55298;-36.624;-64.282;2023-05-01T01:12:51;6.45;;;4.30;;
59972;SDS011;55298;-36.624;-64.282;2023-05-01T01:18:29;8.65;;;4.22;;
59972;SDS011;55298;-36.624;-64.282;2023-05-01T01:21:11;7.93;;;4.78;;
59972;SDS011;55298;-36.624;-64.282;2023-05-01T01:23:52;5.90;;;5.00;;
59972;SDS011;55298;-36.624;-64.282;2023-05-01T01:30:02;5.70;;;5.15;;
59972;SDS011;55298;-36.624;-64.282;2023-05-01T01:32:33;8.43;;;5.97;;
59972;SDS011;55298;-36.624;-64.282;2023-05-01T01:35:28;7.50;;;6.25;;
59972;SDS011;55298;-36.624;-64.282;2023-05-01T01:38:02;7.20;;;6.50;;
59972;SDS011;55298;-36.624;-64.282;2023-05-01T01:40:36;11.95;;;10.88;;
59972;SDS011;55298;-36.624;-64.282;2023-05-01T01:43:11;6.43;;;5.40;;
59972;SDS011;55298;-36.624;-64.282;2023-05-01T01:45:42;10.20;;;4.72;;
59972;SDS011;55298;-36.624;-64.282;2023-05-01T01:48:18;4.70;;;4.10;;
59972;SDS011;55298;-36.624;-64.282;2023-05-01T01:50:50;10.80;;;5.65;;
59972;SDS011;55298;-36.624;-64.282;2023-05-01T01:53:20;4.80;;;4.40;;
59972;SDS011;55298;-36.624;-64.282;2023-05-01T01:55:49;3.97;;;3.55;;
59972;SDS011;55298;-36.624;-64.282;2023-05-01T01:58:20;5.65;;;3.80;;
59972;SDS011;55298;-36.624;-64.282;2023-05-01T02:00:51;3.95;;;3.53;;
59972;SDS011;55298;-36.624;-64.282;2023-05-01T02:03:20;4.80;;;3.20;;
59972;SDS011;55298;-36.624;-64.282;2023-05-01T02:05:52;3.22;;;2.80;;
59972;SDS011;55298;-36.624;-64.282;2023-05-01T02:08:23;3.70;;;3.47;;
59972;SDS011;55298;-36.624;-64.282;2023-05-01T02:10:52;3.72;;;3.45;;
59972;SDS011;55298;-36.624;-64.282;2023-05-01T02:13:26;3.80;;;3.28;;
59972;SDS011;55298;-36.624;-64.282;2023-05-01T02:15:57;4.57;;;4.05;;
59972;SDS011;55298;-36.624;-64.282;2023-05-01T02:18:26;6.35;;;4.50;;
59972;SDS011;55298;-36.624;-64.282;2023-05-01T02:20:56;7.13;;;5.65;;
59972;SDS011;55298;-36.624;-64.282;2023-05-01T02:23:26;7.75;;;6.93;;
59972;SDS011;55298;-36.624;-64.282;2023-05-01T02:25:55;5.88;;;5.35;;
59972;SDS011;55298;-36.624;-64.282;2023-05-01T02:28:25;4.68;;;4.28;;
59972;SDS011;55298;-36.624;-64.282;2023-05-01T02:30:55;4.55;;;4.25;;
59972;SDS011;55298;-36.624;-64.282;2023-05-01T02:33:24;4.82;;;4.32;;
59972;SDS011;55298;-36.624;-64.282;2023-05-01T02:35:52;4.70;;;3.35;;
59972;SDS011;55298;-36.624;-64.282;2023-05-01T02:38:19;4.13;;;3.83;;
59972;SDS011;55298;-36.624;-64.282;2023-05-01T02:40:48;3.92;;;3.33;;
59972;SDS011;55298;-36.624;-64.282;2023-05-01T02:43:22;4.90;;;3.88;;
59972;SDS011;55298;-36.624;-64.282;2023-05-01T02:45:52;4.13;;;3.72;;
59972;SDS011;55298;-36.624;-64.282;2023-05-01T02:48:21;3.70;;;3.40;;
59972;SDS011;55298;-36.624;-64.282;2023-05-01T02:50:52;6.40;;;5.03;;
59972;SDS011;55298;-36.624;-64.282;2023-05-01T02:53:21;6.55;;;4.72;;
59972;SDS011;55298;-36.624;-64.282;2023-05-01T02:55:49;3.15;;;2.88;;
59972;SDS011;55298;-36.624;-64.282;2023-05-01T02:58:17;4.28;;;3.72;;
59972;SDS011;55298;-36.624;-64.282;2023-05-01T03:00:47;8.82;;;4.32;;
59972;SDS011;55298;-36.624;-64.282;2023-05-01T03:03:15;4.53;;;3.00;;
59972;SDS011;55298;-36.624;-64.282;2023-05-01T03:05:43;4.07;;;3.17;;
59972;SDS011;55298;-36.624;-64.282;2023-05-01T03:08:12;3.58;;;3.33;;
59972;SDS011;55298;-36.624;-64.282;2023-05-01T03:10:40;3.00;;;2.80;;
59972;SDS011;55298;-36.624;-64.282;2023-05-01T03:13:08;3.33;;;3.03;;
59972;SDS011;55298;-36.624;-64.282;2023-05-01T03:15:36;6.32;;;3.53;;
59972;SDS011;55298;-36.624;-64.282;2023-05-01T03:18:04;4.03;;;3.20;;
59972;SDS011;55298;-36.624;-64.282;2023-05-01T03:20:32;4.03;;;3.10;;
59972;SDS011;55298;-36.624;-64.282;2023-05-01T03:23:00;2.65;;;2.55;;
59972;SDS011;55298;-36.624;-64.282;2023-05-01T03:25:28;2.42;;;2.25;;
59972;SDS011;55298;-36.624;-64.282;2023-05-01T03:27:56;3.50;;;2.78;;
59972;SDS011;55298;-36.624;-64.282;2023-05-01T03:30:23;3.25;;;2.95;;
59972;SDS011;55298;-36.624;-64.282;2023-05-01T03:32:51;3.13;;;2.90;;
59972;SDS011;55298;-36.624;-64.282;2023-05-01T03:35:19;3.33;;;3.13;;
59972;SDS011;55298;-36.624;-64.282;2023-05-01T03:37:47;2.80;;;2.60;;
59972;SDS011;55298;-36.624;-64.282;2023-05-01T03:40:15;4.57;;;2.83;;
59972;SDS011;55298;-36.624;-64.282;2023-05-01T03:42:44;3.47;;;2.42;;
59972;SDS011;55298;-36.624;-64.282;2023-05-01T03:45:11;2.78;;;2.53;;
59972;SDS011;55298;-36.624;-64.282;2023-05-01T03:47:39;3.00;;;2.90;;
59972;SDS011;55298;-36.624;-64.282;2023-05-01T03:50:07;2.70;;;2.50;;
59972;SDS011;55298;-36.624;-64.282;2023-05-01T03:52:35;8.77;;;8.02;;
59972;SDS011;55298;-36.624;-64.282;2023-05-01T03:55:03;3.50;;;3.25;;
59972;SDS011;55298;-36.624;-64.282;2023-05-01T03:57:32;3.40;;;2.83;;
59972;SDS011;55298;-36.624;-64.282;2023-05-01T04:00:00;3.70;;;3.40;;
59972;SDS011;55298;-36.624;-64.282;2023-05-01T04:02:29;3.40;;;3.10;;
59972;SDS011;55298;-36.624;-64.282;2023-05-01T04:04:57;3.25;;;3.15;;
59972;SDS011;55298;-36.624;-64.282;2023-05-01T04:07:25;3.10;;;3.00;;
59972;SDS011;55298;-36.624;-64.282;2023-05-01T04:09:53;3.10;;;3.00;;
59972;SDS011;55298;-36.624;-64.282;2023-05-01T04:12:20;3.90;;;3.05;;
59972;SDS011;55298;-36.624;-64.282;2023-05-01T04:14:48;3.63;;;3.05;;
59972;SDS011;55298;-36.624;-64.282;2023-05-01T04:17:16;3.53;;;3.33;;
59972;SDS011;55298;-36.624;-64.282;2023-05-01T04:19:44;3.22;;;3.08;;
59972;SDS011;55298;-36.624;-64.282;2023-05-01T04:22:12;4.55;;;2.97;;
59972;SDS011;55298;-36.624;-64.282;2023-05-01T04:24:40;3.67;;;3.10;;
59972;SDS011;55298;-36.624;-64.282;2023-05-01T04:27:08;4.03;;;2.78;;
59972;SDS011;55298;-36.624;-64.282;2023-05-01T04:29:36;3.28;;;2.97;;
59972;SDS011;55298;-36.624;-64.282;2023-05-01T04:32:04;3.05;;;2.90;;
59972;SDS011;55298;-36.624;-64.282;2023-05-01T04:34:35;3.92;;;2.97;;
59972;SDS011;55298;-36.624;-64.282;2023-05-01T04:37:03;2.65;;;2.55;;
59972;SDS011;55298;-36.624;-64.282;2023-05-01T04:39:33;2.83;;;2.63;;
59972;SDS011;55298;-36.624;-64.282;2023-05-01T04:42:02;3.10;;;2.90;;
59972;SDS011;55298;-36.624;-64.282;2023-05-01T04:44:30;2.65;;;2.55;;
59972;SDS011;55298;-36.624;-64.282;2023-05-01T04:47:00;4.25;;;2.72;;
59972;SDS011;55298;-36.624;-64.282;2023-05-01T04:49:29;4.30;;;2.72;;
59972;SDS011;55298;-36.624;-64.282;2023-05-01T04:51:56;3.10;;;2.80;;
59972;SDS011;55298;-36.624;-64.282;2023-05-01T04:54:24;3.15;;;2.75;;
59972;SDS011;55298;-36.624;-64.282;2023-05-01T04:56:52;3.08;;;2.88;;
59972;SDS011;55298;-36.624;-64.282;2023-05-01T04:59:20;3.78;;;3.50;;
59972;SDS011;55298;-36.624;-64.282;2023-05-01T05:01:48;3.35;;;2.97;;
59972;SDS011;55298;-36.624;-64.282;2023-05-01T05:04:16;3.25;;;3.05;;
59972;SDS011;55298;-36.624;-64.282;2023-05-01T05:06:43;3.25;;;2.75;;
59972;SDS011;55298;-36.624;-64.282;2023-05-01T05:09:11;3.60;;;3.30;;
59972;SDS011;55298;-36.624;-64.282;2023-05-01T05:11:46;2.83;;;2.63;;
59972;SDS011;55298;-36.624;-64.282;2023-05-01T05:14:14;3.97;;;2.90;;
59972;SDS011;55298;-36.624;-64.282;2023-05-01T05:16:42;3.80;;;3.60;;
59972;SDS011;55298;-36.624;-64.282;2023-05-01T05:19:10;3.03;;;2.83;;
59972;SDS011;55298;-36.624;-64.282;2023-05-01T05:21:38;3.00;;;2.90;;
59972;SDS011;55298;-36.624;-64.282;2023-05-01T05:24:06;2.78;;;2.67;;
59972;SDS011;55298;-36.624;-64.282;2023-05-01T05:26:33;3.55;;;3.33;;
59972;SDS011;55298;-36.624;-64.282;2023-05-01T05:29:01;3.80;;;3.33;;
59972;SDS011;55298;-36.624;-64.282;2023-05-01T05:31:29;3.10;;;3.00;;
59972;SDS011;55298;-36.624;-64.282;2023-05-01T05:33:57;3.10;;;2.90;;
59972;SDS011;55298;-36.624;-64.282;2023-05-01T05:36:25;3.67;;;3.20;;
59972;SDS011;55298;-36.624;-64.282;2023-05-01T05:38:53;3.40;;;3.20;;
59972;SDS011;55298;-36.624;-64.282;2023-05-01T05:41:22;3.20;;;3.03;;
59972;SDS011;55298;-36.624;-64.282;2023-05-01T05:43:49;5.63;;;3.20;;
59972;SDS011;55298;-36.624;-64.282;2023-05-01T05:46:18;4.30;;;2.90;;
59972;SDS011;55298;-36.624;-64.282;2023-05-01T05:48:46;4.45;;;3.40;;
59972;SDS011;55298;-36.624;-64.282;2023-05-01T05:51:14;3.20;;;3.00;;
59972;SDS011;55298;-36.624;-64.282;2023-05-01T05:53:42;3.40;;;3.10;;
59972;SDS011;55298;-36.624;-64.282;2023-05-01T05:56:10;3.63;;;3.05;;
59972;SDS011;55298;-36.624;-64.282;2023-05-01T05:58:37;3.03;;;2.83;;
59972;SDS011;55298;-36.624;-64.282;2023-05-01T06:01:05;3.90;;;3.28;;
59972;SDS011;55298;-36.624;-64.282;2023-05-01T06:03:34;3.90;;;2.75;;
59972;SDS011;55298;-36.624;-64.282;2023-05-01T06:06:01;3.00;;;2.90;;
59972;SDS011;55298;-36.624;-64.282;2023-05-01T06:08:29;3.22;;;3.10;;
59972;SDS011;55298;-36.624;-64.282;2023-05-01T06:10:57;3.50;;;3.10;;
59972;SDS011;55298;-36.624;-64.282;2023-05-01T06:13:25;3.53;;;3.33;;
59972;SDS011;55298;-36.624;-64.282;2023-05-01T06:15:53;2.92;;;2.75;;
59972;SDS011;55298;-36.624;-64.282;2023-05-01T06:18:20;3.05;;;2.95;;
59972;SDS011;55298;-36.624;-64.282;2023-05-01T06:20:48;3.05;;;2.85;;
59972;SDS011;55298;-36.624;-64.282;2023-05-01T06:23:17;3.10;;;2.80;;
59972;SDS011;55298;-36.624;-64.282;2023-05-01T06:25:44;2.90;;;2.80;;
59972;SDS011;55298;-36.624;-64.282;2023-05-01T06:28:13;3.25;;;2.95;;
59972;SDS011;55298;-36.624;-64.282;2023-05-01T06:30:41;3.47;;;3.38;;
59972;SDS011;55298;-36.624;-64.282;2023-05-01T06:33:09;3.40;;;3.20;;
59972;SDS011;55298;-36.624;-64.282;2023-05-01T06:35:38;3.00;;;2.90;;
59972;SDS011;55298;-36.624;-64.282;2023-05-01T06:38:06;3.22;;;3.03;;
59972;SDS011;55298;-36.624;-64.282;2023-05-01T06:40:34;3.17;;;2.90;;
59972;SDS011;55298;-36.624;-64.282;2023-05-01T06:43:02;3.10;;;2.90;;
59972;SDS011;55298;-36.624;-64.282;2023-05-01T06:45:30;3.47;;;3.38;;
59972;SDS011;55298;-36.624;-64.282;2023-05-01T06:47:59;3.60;;;3.30;;
59972;SDS011;55298;-36.624;-64.282;2023-05-01T06:50:27;4.55;;;3.60;;
59972;SDS011;55298;-36.624;-64.282;2023-05-01T06:52:55;3.10;;;2.95;;
59972;SDS011;55298;-36.624;-64.282;2023-05-01T06:55:25;4.00;;;3.00;;
59972;SDS011;55298;-36.624;-64.282;2023-05-01T06:57:56;3.15;;;3.05;;
59972;SDS011;55298;-36.624;-64.282;2023-05-01T07:00:23;3.88;;;3.22;;
59972;SDS011;55298;-36.624;-64.282;2023-05-01T07:02:51;3.65;;;3.35;;
59972;SDS011;55298;-36.624;-64.282;2023-05-01T07:05:19;3.00;;;2.90;;
59972;SDS011;55298;-36.624;-64.282;2023-05-01T07:07:47;3.38;;;3.00;;
59972;SDS011;55298;-36.624;-64.282;2023-05-01T07:10:15;3.20;;;2.97;;
59972;SDS011;55298;-36.624;-64.282;2023-05-01T07:12:42;2.80;;;2.70;;
59972;SDS011;55298;-36.624;-64.282;2023-05-01T07:15:11;3.28;;;3.10;;
59972;SDS011;55298;-36.624;-64.282;2023-05-01T07:17:41;3.20;;;3.10;;
59972;SDS011;55298;-36.624;-64.282;2023-05-01T07:20:09;3.72;;;3.42;;
59972;SDS011;55298;-36.624;-64.282;2023-05-01T07:22:37;3.70;;;3.50;;
59972;SDS011;55298;-36.624;-64.282;2023-05-01T07:25:04;3.58;;;3.45;;
59972;SDS011;55298;-36.624;-64.282;2023-05-01T07:27:33;3.55;;;3.22;;
59972;SDS011;55298;-36.624;-64.282;2023-05-01T07:30:01;5.25;;;3.55;;
59972;SDS011;55298;-36.624;-64.282;2023-05-01T07:32:29;2.85;;;2.67;;
59972;SDS011;55298;-36.624;-64.282;2023-05-01T07:34:57;3.15;;;3.03;;
59972;SDS011;55298;-36.624;-64.282;2023-05-01T07:37:25;3.20;;;3.00;;
59972;SDS011;55298;-36.624;-64.282;2023-05-01T07:39:53;3.35;;;3.05;;
59972;SDS011;55298;-36.624;-64.282;2023-05-01T07:42:22;3.58;;;3.25;;
59972;SDS011;55298;-36.624;-64.282;2023-05-01T07:44:52;3.05;;;2.85;;
59972;SDS011;55298;-36.624;-64.282;2023-05-01T07:47:20;3.30;;;3.00;;
59972;SDS011;55298;-36.624;-64.282;2023-05-01T07:49:49;5.90;;;3.38;;
59972;SDS011;55298;-36.624;-64.282;2023-05-01T07:52:16;3.78;;;3.47;;
59972;SDS011;55298;-36.624;-64.282;2023-05-01T07:54:48;3.30;;;3.13;;
59972;SDS011;55298;-36.624;-64.282;2023-05-01T07:57:16;3.58;;;3.22;;
59972;SDS011;55298;-36.624;-64.282;2023-05-01T07:59:44;3.83;;;3.25;;
59972;SDS011;55298;-36.624;-64.282;2023-05-01T08:02:12;3.55;;;3.25;;
59972;SDS011;55298;-36.624;-64.282;2023-05-01T08:04:42;3.33;;;3.13;;
59972;SDS011;55298;-36.624;-64.282;2023-05-01T08:07:10;5.07;;;3.25;;
59972;SDS011;55298;-36.624;-64.282;2023-05-01T08:09:38;4.43;;;2.80;;
59972;SDS011;55298;-36.624;-64.282;2023-05-01T08:12:06;3.30;;;3.20;;
59972;SDS011;55298;-36.624;-64.282;2023-05-01T08:14:33;3.30;;;3.20;;
59972;SDS011;55298;-36.624;-64.282;2023-05-01T08:17:01;4.85;;;3.28;;
59972;SDS011;55298;-36.624;-64.282;2023-05-01T08:19:29;3.30;;;3.08;;
59972;SDS011;55298;-36.624;-64.282;2023-05-01T08:21:57;3.30;;;2.88;;
59972;SDS011;55298;-36.624;-64.282;2023-05-01T08:24:24;3.45;;;3.35;;
59972;SDS011;55298;-36.624;-64.282;2023-05-01T08:26:52;4.25;;;3.45;;
59972;SDS011;55298;-36.624;-64.282;2023-05-01T08:29:20;3.00;;;2.90;;
59972;SDS011;55298;-36.624;-64.282;2023-05-01T08:31:48;3.33;;;3.22;;
59972;SDS011;55298;-36.624;-64.282;2023-05-01T08:34:16;3.13;;;2.92;;
59972;SDS011;55298;-36.624;-64.282;2023-05-01T08:36:43;3.30;;;3.17;;
59972;SDS011;55298;-36.624;-64.282;2023-05-01T08:39:11;3.58;;;3.47;;
59972;SDS011;55298;-36.624;-64.282;2023-05-01T08:41:43;3.30;;;3.08;;
59972;SDS011;55298;-36.624;-64.282;2023-05-01T08:44:14;4.07;;;3.08;;
59972;SDS011;55298;-36.624;-64.282;2023-05-01T08:46:47;3.20;;;2.90;;
59972;SDS011;55298;-36.624;-64.282;2023-05-01T08:49:31;3.20;;;3.10;;
59972;SDS011;55298;-36.624;-64.282;2023-05-01T08:52:00;3.47;;;3.28;;
59972;SDS011;55298;-36.624;-64.282;2023-05-01T08:54:30;4.15;;;3.42;;
59972;SDS011;55298;-36.624;-64.282;2023-05-01T08:57:00;3.40;;;3.30;;
59972;SDS011;55298;-36.624;-64.282;2023-05-01T08:59:29;3.08;;;2.88;;
59972;SDS011;55298;-36.624;-64.282;2023-05-01T09:02:02;3.20;;;3.03;;
59972;SDS011;55298;-36.624;-64.282;2023-05-01T09:04:32;3.28;;;3.08;;
59972;SDS011;55298;-36.624;-64.282;2023-05-01T09:07:02;3.65;;;3.45;;
59972;SDS011;55298;-36.624;-64.282;2023-05-01T09:09:30;3.17;;;3.05;;
59972;SDS011;55298;-36.624;-64.282;2023-05-01T09:12:05;3.47;;;3.33;;
59972;SDS011;55298;-36.624;-64.282;2023-05-01T09:14:38;3.50;;;3.40;;
59972;SDS011;55298;-36.624;-64.282;2023-05-01T09:17:06;4.05;;;3.30;;
59972;SDS011;55298;-36.624;-64.282;2023-05-01T09:19:34;3.47;;;3.33;;
59972;SDS011;55298;-36.624;-64.282;2023-05-01T09:22:02;3.05;;;2.95;;
59972;SDS011;55298;-36.624;-64.282;2023-05-01T09:24:30;3.30;;;3.15;;
59972;SDS011;55298;-36.624;-64.282;2023-05-01T09:26:58;3.10;;;3.00;;
59972;SDS011;55298;-36.624;-64.282;2023-05-01T09:34:47;3.33;;;3.03;;
59972;SDS011;55298;-36.624;-64.282;2023-05-01T09:40:05;3.03;;;2.92;;
59972;SDS011;55298;-36.624;-64.282;2023-05-01T09:42:36;3.53;;;3.30;;
59972;SDS011;55298;-36.624;-64.282;2023-05-01T09:45:14;3.80;;;3.47;;
59972;SDS011;55298;-36.624;-64.282;2023-05-01T09:47:44;3.38;;;3.17;;
59972;SDS011;55298;-36.624;-64.282;2023-05-01T09:52:57;3.67;;;3.47;;
59972;SDS011;55298;-36.624;-64.282;2023-05-01T09:55:29;3.95;;;3.60;;
59972;SDS011;55298;-36.624;-64.282;2023-05-01T09:57:57;3.80;;;3.47;;
59972;SDS011;55298;-36.624;-64.282;2023-05-01T10:00:25;4.20;;;4.00;;
59972;SDS011;55298;-36.624;-64.282;2023-05-01T10:02:54;3.75;;;3.45;;
59972;SDS011;55298;-36.624;-64.282;2023-05-01T10:05:22;3.72;;;3.35;;
59972;SDS011;55298;-36.624;-64.282;2023-05-01T10:10:30;3.75;;;3.47;;
59972;SDS011;55298;-36.624;-64.282;2023-05-01T10:13:11;3.58;;;3.47;;
59972;SDS011;55298;-36.624;-64.282;2023-05-01T10:15:40;3.67;;;3.33;;
59972;SDS011;55298;-36.624;-64.282;2023-05-01T10:18:08;3.17;;;3.08;;
59972;SDS011;55298;-36.624;-64.282;2023-05-01T10:20:36;4.15;;;3.95;;
59972;SDS011;55298;-36.624;-64.282;2023-05-01T10:23:04;3.45;;;3.35;;
59972;SDS011;55298;-36.624;-64.282;2023-05-01T10:25:32;3.80;;;3.50;;
59972;SDS011;55298;-36.624;-64.282;2023-05-01T10:28:02;3.60;;;2.97;;
59972;SDS011;55298;-36.624;-64.282;2023-05-01T10:30:31;3.33;;;3.20;;
59972;SDS011;55298;-36.624;-64.282;2023-05-01T10:33:02;3.38;;;3.28;;
59972;SDS011;55298;-36.624;-64.282;2023-05-01T10:35:31;3.50;;;3.40;;
59972;SDS011;55298;-36.624;-64.282;2023-05-01T10:38:04;3.90;;;3.65;;
59972;SDS011;55298;-36.624;-64.282;2023-05-01T10:40:42;3.67;;;3.47;;
59972;SDS011;55298;-36.624;-64.282;2023-05-01T10:43:14;3.72;;;3.63;;
59972;SDS011;55298;-36.624;-64.282;2023-05-01T10:46:25;3.95;;;3.75;;
59972;SDS011;55298;-36.624;-64.282;2023-05-01T10:48:52;3.83;;;3.72;;
59972;SDS011;55298;-36.624;-64.282;2023-05-01T10:51:21;3.70;;;3.42;;
59972;SDS011;55298;-36.624;-64.282;2023-05-01T10:56:39;3.70;;;3.45;;
59972;SDS011;55298;-36.624;-64.282;2023-05-01T10:59:10;3.85;;;3.65;;
59972;SDS011;55298;-36.624;-64.282;2023-05-01T11:01:38;3.67;;;3.58;;
59972;SDS011;55298;-36.624;-64.282;2023-05-01T11:09:40;3.60;;;3.47;;
59972;SDS011;55298;-36.624;-64.282;2023-05-01T11:12:14;4.55;;;4.15;;
59972;SDS011;55298;-36.624;-64.282;2023-05-01T11:15:01;3.20;;;3.10;;
59972;SDS011;55298;-36.624;-64.282;2023-05-01T11:17:45;3.75;;;3.55;;
59972;SDS011;55298;-36.624;-64.282;2023-05-01T11:23:10;4.03;;;3.78;;
59972;SDS011;55298;-36.624;-64.282;2023-05-01T11:25:43;3.50;;;3.35;;
59972;SDS011;55298;-36.624;-64.282;2023-05-01T11:28:13;3.53;;;3.42;;
59972;SDS011;55298;-36.624;-64.282;2023-05-01T11:33:13;3.88;;;3.78;;
59972;SDS011;55298;-36.624;-64.282;2023-05-01T11:35:56;4.18;;;3.95;;
59972;SDS011;55298;-36.624;-64.282;2023-05-01T11:38:25;3.17;;;2.92;;
59972;SDS011;55298;-36.624;-64.282;2023-05-01T11:40:53;3.22;;;3.03;;
59972;SDS011;55298;-36.624;-64.282;2023-05-01T11:43:23;2.97;;;2.78;;
59972;SDS011;55298;-36.624;-64.282;2023-05-01T11:45:52;3.88;;;3.25;;
59972;SDS011;55298;-36.624;-64.282;2023-05-01T11:48:27;3.35;;;3.10;;
59972;SDS011;55298;-36.624;-64.282;2023-05-01T11:50:55;4.75;;;3.70;;
59972;SDS011;55298;-36.624;-64.282;2023-05-01T11:53:23;3.80;;;3.13;;
59972;SDS011;55298;-36.624;-64.282;2023-05-01T11:55:53;3.42;;;3.13;;
59972;SDS011;55298;-36.624;-64.282;2023-05-01T11:58:33;3.10;;;2.95;;
59972;SDS011;55298;-36.624;-64.282;2023-05-01T12:01:02;3.50;;;3.30;;
59972;SDS011;55298;-36.624;-64.282;2023-05-01T12:03:39;4.60;;;3.50;;
59972;SDS011;55298;-36.624;-64.282;2023-05-01T12:06:08;3.78;;;3.30;;
59972;SDS011;55298;-36.624;-64.282;2023-05-01T12:08:42;3.65;;;3.25;;
59972;SDS011;55298;-36.624;-64.282;2023-05-01T12:11:15;3.60;;;3.15;;
59972;SDS011;55298;-36.624;-64.282;2023-05-01T12:13:45;5.63;;;3.50;;
59972;SDS011;55298;-36.624;-64.282;2023-05-01T12:16:14;3.10;;;2.90;;
59972;SDS011;55298;-36.624;-64.282;2023-05-01T12:18:42;5.03;;;3.28;;
59972;SDS011;55298;-36.624;-64.282;2023-05-01T12:21:14;3.40;;;3.10;;
59972;SDS011;55298;-36.624;-64.282;2023-05-01T12:23:43;3.08;;;2.97;;
59972;SDS011;55298;-36.624;-64.282;2023-05-01T12:26:19;2.65;;;2.55;;
59972;SDS011;55298;-36.624;-64.282;2023-05-01T12:28:54;3.30;;;3.10;;
59972;SDS011;55298;-36.624;-64.282;2023-05-01T12:31:26;3.20;;;2.85;;
59972;SDS011;55298;-36.624;-64.282;2023-05-01T12:33:55;3.22;;;3.03;;
59972;SDS011;55298;-36.624;-64.282;2023-05-01T12:36:26;3.03;;;2.75;;
59972;SDS011;55298;-36.624;-64.282;2023-05-01T12:39:02;2.88;;;2.58;;
59972;SDS011;55298;-36.624;-64.282;2023-05-01T12:41:34;2.50;;;2.30;;
59972;SDS011;55298;-36.624;-64.282;2023-05-01T12:46:45;3.40;;;2.55;;
59972;SDS011;55298;-36.624;-64.282;2023-05-01T12:49:20;7.25;;;5.75;;
59972;SDS011;55298;-36.624;-64.282;2023-05-01T12:51:49;2.55;;;2.35;;
59972;SDS011;55298;-36.624;-64.282;2023-05-01T12:54:19;1.98;;;1.88;;
59972;SDS011;55298;-36.624;-64.282;2023-05-01T12:56:50;18.40;;;4.43;;
59972;SDS011;55298;-36.624;-64.282;2023-05-01T12:59:19;3.42;;;2.92;;
59972;SDS011;55298;-36.624;-64.282;2023-05-01T13:04:30;2.05;;;1.90;;
59972;SDS011;55298;-36.624;-64.282;2023-05-01T13:06:58;12.73;;;11.63;;
59972;SDS011;55298;-36.624;-64.282;2023-05-01T13:09:26;2.10;;;1.95;;
59972;SDS011;55298;-36.624;-64.282;2023-05-01T13:11:56;3.53;;;1.90;;
59972;SDS011;55298;-36.624;-64.282;2023-05-01T13:14:35;2.00;;;1.90;;
59972;SDS011;55298;-36.624;-64.282;2023-05-01T13:17:06;2.10;;;1.80;;
59972;SDS011;55298;-36.624;-64.282;2023-05-01T13:19:35;2.20;;;2.00;;
59972;SDS011;55298;-36.624;-64.282;2023-05-01T13:22:04;3.05;;;2.10;;
59972;SDS011;55298;-36.624;-64.282;2023-05-01T13:24:39;2.38;;;2.17;;
59972;SDS011;55298;-36.624;-64.282;2023-05-01T13:27:10;3.10;;;2.00;;
59972;SDS011;55298;-36.624;-64.282;2023-05-01T13:29:38;2.22;;;2.10;;
59972;SDS011;55298;-36.624;-64.282;2023-05-01T13:32:09;2.92;;;2.72;;
59972;SDS011;55298;-36.624;-64.282;2023-05-01T13:34:40;2.72;;;2.20;;
59972;SDS011;55298;-36.624;-64.282;2023-05-01T13:37:09;2.10;;;1.70;;
59972;SDS011;55298;-36.624;-64.282;2023-05-01T13:39:41;1.95;;;1.85;;
59972;SDS011;55298;-36.624;-64.282;2023-05-01T13:42:10;1.75;;;1.60;;
59972;SDS011;55298;-36.624;-64.282;2023-05-01T13:44:46;2.03;;;1.70;;
59972;SDS011;55298;-36.624;-64.282;2023-05-01T13:47:17;3.13;;;2.28;;
59972;SDS011;55298;-36.624;-64.282;2023-05-01T13:49:47;1.67;;;1.60;;
59972;SDS011;55298;-36.624;-64.282;2023-05-01T13:52:16;1.80;;;1.70;;
59972;SDS011;55298;-36.624;-64.282;2023-05-01T13:54:45;1.90;;;1.80;;
59972;SDS011;55298;-36.624;-64.282;2023-05-01T13:57:14;2.85;;;2.30;;
59972;SDS011;55298;-36.624;-64.282;2023-05-01T13:59:42;2.85;;;1.90;;
59972;SDS011;55298;-36.624;-64.282;2023-05-01T14:02:19;3.13;;;1.80;;
59972;SDS011;55298;-36.624;-64.282;2023-05-01T14:04:54;1.90;;;1.80;;
59972;SDS011;55298;-36.624;-64.282;2023-05-01T14:07:23;2.60;;;2.40;;
59972;SDS011;55298;-36.624;-64.282;2023-05-01T14:09:53;2.40;;;2.20;;
59972;SDS011;55298;-36.624;-64.282;2023-05-01T14:12:23;2.65;;;2.40;;
59972;SDS011;55298;-36.624;-64.282;2023-05-01T14:14:54;2.50;;;2.10;;
59972;SDS011;55298;-36.624;-64.282;2023-05-01T14:17:26;2.03;;;1.92;;
59972;SDS011;55298;-36.624;-64.282;2023-05-01T14:19:57;3.30;;;2.22;;
59972;SDS011;55298;-36.624;-64.282;2023-05-01T14:25:36;1.80;;;1.70;;
59972;SDS011;55298;-36.624;-64.282;2023-05-01T14:28:00;2.00;;;1.80;;
59972;SDS011;55298;-36.624;-64.282;2023-05-01T14:30:33;2.00;;;1.90;;
59972;SDS011;55298;-36.624;-64.282;2023-05-01T14:33:06;2.40;;;2.20;;
59972;SDS011;55298;-36.624;-64.282;2023-05-01T14:35:42;2.20;;;2.00;;
59972;SDS011;55298;-36.624;-64.282;2023-05-01T14:38:15;2.60;;;2.40;;
59972;SDS011;55298;-36.624;-64.282;2023-05-01T14:40:44;2.20;;;2.00;;
59972;SDS011;55298;-36.624;-64.282;2023-05-01T14:43:13;1.90;;;1.80;;
59972;SDS011;55298;-36.624;-64.282;2023-05-01T14:45:44;1.73;;;1.63;;
59972;SDS011;55298;-36.624;-64.282;2023-05-01T14:48:19;1.92;;;1.80;;
59972;SDS011;55298;-36.624;-64.282;2023-05-01T14:50:49;2.20;;;2.00;;
59972;SDS011;55298;-36.624;-64.282;2023-05-01T14:53:19;2.97;;;2.50;;
59972;SDS011;55298;-36.624;-64.282;2023-05-01T14:55:49;3.05;;;2.03;;
59972;SDS011;55298;-36.624;-64.282;2023-05-01T14:58:18;2.25;;;2.05;;
59972;SDS011;55298;-36.624;-64.282;2023-05-01T15:00:46;2.53;;;2.33;;
59972;SDS011;55298;-36.624;-64.282;2023-05-01T15:03:14;2.55;;;2.35;;
59972;SDS011;55298;-36.624;-64.282;2023-05-01T15:05:42;2.25;;;2.13;;
59972;SDS011;55298;-36.624;-64.282;2023-05-01T15:08:10;1.90;;;1.80;;
59972;SDS011;55298;-36.624;-64.282;2023-05-01T15:10:38;3.05;;;2.15;;
59972;SDS011;55298;-36.624;-64.282;2023-05-01T15:13:06;1.70;;;1.60;;